sensor_id;sensor_type;location;lat;lon;timestamp;P1;durP1;ratioP1;P2;durP2;ratioP2
13034;SDS011;6584;48.022;11.810;2022-07-24T00:01:46;8.75;;;8.02;;
13034;SDS011;6584;48.022;11.810;2022-07-24T00:04:11;8.48;;;7.78;;
13034;SDS011;6584;48.022;11.810;2022-07-24T00:06:37;8.55;;;7.85;;
13034;SDS011;6584;48.022;11.810;2022-07-24T00:09:03;8.70;;;7.90;;
13034;SDS011;6584;48.022;11.810;2022-07-24T00:11:29;8.68;;;7.88;;
13034;SDS011;6584;48.022;11.810;2022-07-24T00:13:55;9.60;;;8.60;;
13034;SDS011;6584;48.022;11.810;2022-07-24T00:16:21;8.93;;;8.13;;
13034;SDS011;6584;48.022;11.810;2022-07-24T00:18:46;9.20;;;7.82;;
13034;SDS011;6584;48.022;11.810;2022-07-24T00:21:12;8.27;;;7.57;;
13034;SDS011;6584;48.022;11.810;2022-07-24T00:23:38;8.63;;;7.82;;
13034;SDS011;6584;48.022;11.810;2022-07-24T00:26:03;8.43;;;7.72;;
13034;SDS011;6584;48.022;11.810;2022-07-24T00:28:29;8.68;;;7.90;;
13034;SDS011;6584;48.022;11.810;2022-07-24T00:30:55;8.50;;;7.85;;
13034;SDS011;6584;48.022;11.810;2022-07-24T00:33:20;8.60;;;7.80;;
13034;SDS011;6584;48.022;11.810;2022-07-24T00:35:46;8.82;;;8.02;;
13034;SDS011;6584;48.022;11.810;2022-07-24T00:38:12;8.20;;;7.45;;
13034;SDS011;6584;48.022;11.810;2022-07-24T00:40:37;8.80;;;7.90;;
13034;SDS011;6584;48.022;11.810;2022-07-24T00:43:03;8.75;;;8.02;;
13034;SDS011;6584;48.022;11.810;2022-07-24T00:45:29;9.13;;;8.30;;
13034;SDS011;6584;48.022;11.810;2022-07-24T00:47:55;8.75;;;8.05;;
13034;SDS011;6584;48.022;11.810;2022-07-24T00:50:21;8.80;;;8.00;;
13034;SDS011;6584;48.022;11.810;2022-07-24T00:52:47;8.60;;;7.90;;
13034;SDS011;6584;48.022;11.810;2022-07-24T00:55:13;8.30;;;7.55;;
13034;SDS011;6584;48.022;11.810;2022-07-24T00:57:40;8.43;;;7.72;;
13034;SDS011;6584;48.022;11.810;2022-07-24T01:00:09;8.30;;;7.60;;
13034;SDS011;6584;48.022;11.810;2022-07-24T01:02:38;9.20;;;7.75;;
13034;SDS011;6584;48.022;11.810;2022-07-24T01:05:05;9.15;;;8.25;;
13034;SDS011;6584;48.022;11.810;2022-07-24T01:07:31;8.40;;;7.60;;
13034;SDS011;6584;48.022;11.810;2022-07-24T01:09:56;8.68;;;7.90;;
13034;SDS011;6584;48.022;11.810;2022-07-24T01:12:22;8.82;;;8.07;;
13034;SDS011;6584;48.022;11.810;2022-07-24T01:14:48;9.05;;;8.25;;
13034;SDS011;6584;48.022;11.810;2022-07-24T01:17:14;9.40;;;8.60;;
13034;SDS011;6584;48.022;11.810;2022-07-24T01:19:39;9.55;;;8.52;;
13034;SDS011;6584;48.022;11.810;2022-07-24T01:22:05;8.80;;;8.05;;
13034;SDS011;6584;48.022;11.810;2022-07-24T01:24:30;9.23;;;8.15;;
13034;SDS011;6584;48.022;11.810;2022-07-24T01:26:56;8.32;;;7.63;;
13034;SDS011;6584;48.022;11.810;2022-07-24T01:29:22;8.60;;;7.90;;
13034;SDS011;6584;48.022;11.810;2022-07-24T01:31:47;8.57;;;7.88;;
13034;SDS011;6584;48.022;11.810;2022-07-24T01:34:13;8.55;;;7.72;;
13034;SDS011;6584;48.022;11.810;2022-07-24T01:36:39;8.90;;;8.10;;
13034;SDS011;6584;48.022;11.810;2022-07-24T01:39:05;9.13;;;8.10;;
13034;SDS011;6584;48.022;11.810;2022-07-24T01:41:30;8.25;;;7.45;;
13034;SDS011;6584;48.022;11.810;2022-07-24T01:43:56;8.52;;;7.85;;
13034;SDS011;6584;48.022;11.810;2022-07-24T01:46:21;9.68;;;8.77;;
13034;SDS011;6584;48.022;11.810;2022-07-24T01:48:47;7.93;;;7.32;;
13034;SDS011;6584;48.022;11.810;2022-07-24T01:51:13;8.68;;;7.95;;
13034;SDS011;6584;48.022;11.810;2022-07-24T01:53:38;8.77;;;8.00;;
13034;SDS011;6584;48.022;11.810;2022-07-24T01:56:04;9.48;;;8.63;;
13034;SDS011;6584;48.022;11.810;2022-07-24T01:58:29;8.65;;;7.85;;
13034;SDS011;6584;48.022;11.810;2022-07-24T02:00:55;9.93;;;9.02;;
13034;SDS011;6584;48.022;11.810;2022-07-24T02:03:21;9.55;;;8.75;;
13034;SDS011;6584;48.022;11.810;2022-07-24T02:05:46;8.82;;;8.02;;
13034;SDS011;6584;48.022;11.810;2022-07-24T02:08:12;8.45;;;7.75;;
13034;SDS011;6584;48.022;11.810;2022-07-24T02:10:38;9.00;;;8.20;;
13034;SDS011;6584;48.022;11.810;2022-07-24T02:13:05;8.52;;;7.80;;
13034;SDS011;6584;48.022;11.810;2022-07-24T02:15:31;8.82;;;8.02;;
13034;SDS011;6584;48.022;11.810;2022-07-24T02:17:59;8.73;;;8.00;;
13034;SDS011;6584;48.022;11.810;2022-07-24T02:20:26;8.88;;;8.05;;
13034;SDS011;6584;48.022;11.810;2022-07-24T02:22:52;9.40;;;8.52;;
13034;SDS011;6584;48.022;11.810;2022-07-24T02:25:18;9.10;;;8.40;;
13034;SDS011;6584;48.022;11.810;2022-07-24T02:27:43;9.80;;;8.80;;
13034;SDS011;6584;48.022;11.810;2022-07-24T02:30:13;9.00;;;8.20;;
13034;SDS011;6584;48.022;11.810;2022-07-24T02:32:41;8.80;;;8.10;;
13034;SDS011;6584;48.022;11.810;2022-07-24T02:35:07;8.38;;;7.60;;
13034;SDS011;6584;48.022;11.810;2022-07-24T02:37:36;9.20;;;8.32;;
13034;SDS011;6584;48.022;11.810;2022-07-24T02:40:04;8.45;;;7.85;;
13034;SDS011;6584;48.022;11.810;2022-07-24T02:42:31;9.07;;;8.27;;
13034;SDS011;6584;48.022;11.810;2022-07-24T02:44:57;8.90;;;8.20;;
13034;SDS011;6584;48.022;11.810;2022-07-24T02:47:22;8.68;;;7.88;;
13034;SDS011;6584;48.022;11.810;2022-07-24T02:49:48;8.88;;;8.07;;
13034;SDS011;6584;48.022;11.810;2022-07-24T02:52:13;8.80;;;8.00;;
13034;SDS011;6584;48.022;11.810;2022-07-24T02:54:39;8.90;;;8.20;;
13034;SDS011;6584;48.022;11.810;2022-07-24T02:57:05;9.20;;;8.25;;
13034;SDS011;6584;48.022;11.810;2022-07-24T02:59:31;9.20;;;8.40;;
13034;SDS011;6584;48.022;11.810;2022-07-24T03:01:56;8.93;;;8.02;;
13034;SDS011;6584;48.022;11.810;2022-07-24T03:04:22;8.38;;;7.65;;
13034;SDS011;6584;48.022;11.810;2022-07-24T03:06:48;9.13;;;8.32;;
13034;SDS011;6584;48.022;11.810;2022-07-24T03:09:13;8.00;;;7.30;;
13034;SDS011;6584;48.022;11.810;2022-07-24T03:11:39;8.98;;;8.18;;
13034;SDS011;6584;48.022;11.810;2022-07-24T03:14:04;9.10;;;8.32;;
13034;SDS011;6584;48.022;11.810;2022-07-24T03:16:30;9.00;;;8.20;;
13034;SDS011;6584;48.022;11.810;2022-07-24T03:18:56;8.93;;;8.10;;
13034;SDS011;6584;48.022;11.810;2022-07-24T03:21:21;9.00;;;8.20;;
13034;SDS011;6584;48.022;11.810;2022-07-24T03:23:47;9.05;;;8.25;;
13034;SDS011;6584;48.022;11.810;2022-07-24T03:26:13;9.65;;;8.82;;
13034;SDS011;6584;48.022;11.810;2022-07-24T03:28:38;9.27;;;8.38;;
13034;SDS011;6584;48.022;11.810;2022-07-24T03:31:04;9.00;;;8.10;;
13034;SDS011;6584;48.022;11.810;2022-07-24T03:33:29;8.65;;;7.95;;
13034;SDS011;6584;48.022;11.810;2022-07-24T03:35:55;9.40;;;8.55;;
13034;SDS011;6584;48.022;11.810;2022-07-24T03:38:21;9.07;;;8.27;;
13034;SDS011;6584;48.022;11.810;2022-07-24T03:40:46;9.32;;;8.52;;
13034;SDS011;6584;48.022;11.810;2022-07-24T03:43:12;9.32;;;8.43;;
13034;SDS011;6584;48.022;11.810;2022-07-24T03:45:38;9.32;;;8.52;;
13034;SDS011;6584;48.022;11.810;2022-07-24T03:48:04;9.18;;;8.32;;
13034;SDS011;6584;48.022;11.810;2022-07-24T03:50:29;8.73;;;8.02;;
13034;SDS011;6584;48.022;11.810;2022-07-24T03:52:55;9.70;;;8.82;;
13034;SDS011;6584;48.022;11.810;2022-07-24T03:55:21;9.70;;;8.43;;
13034;SDS011;6584;48.022;11.810;2022-07-24T03:57:46;9.18;;;8.40;;
13034;SDS011;6584;48.022;11.810;2022-07-24T04:00:12;9.02;;;8.23;;
13034;SDS011;6584;48.022;11.810;2022-07-24T04:02:38;9.23;;;8.35;;
13034;SDS011;6584;48.022;11.810;2022-07-24T04:05:04;8.93;;;8.23;;
13034;SDS011;6584;48.022;11.810;2022-07-24T04:07:33;9.23;;;8.43;;
13034;SDS011;6584;48.022;11.810;2022-07-24T04:10:00;8.90;;;8.20;;
13034;SDS011;6584;48.022;11.810;2022-07-24T04:12:25;9.48;;;8.57;;
13034;SDS011;6584;48.022;11.810;2022-07-24T04:14:51;8.63;;;7.88;;
13034;SDS011;6584;48.022;11.810;2022-07-24T04:17:16;8.70;;;8.00;;
13034;SDS011;6584;48.022;11.810;2022-07-24T04:19:42;9.38;;;8.52;;
13034;SDS011;6584;48.022;11.810;2022-07-24T04:22:07;9.43;;;8.52;;
13034;SDS011;6584;48.022;11.810;2022-07-24T04:24:33;9.35;;;8.55;;
13034;SDS011;6584;48.022;11.810;2022-07-24T04:26:59;9.85;;;8.85;;
13034;SDS011;6584;48.022;11.810;2022-07-24T04:29:24;9.40;;;8.60;;
13034;SDS011;6584;48.022;11.810;2022-07-24T04:31:50;9.05;;;8.15;;
13034;SDS011;6584;48.022;11.810;2022-07-24T04:34:15;9.40;;;8.40;;
13034;SDS011;6584;48.022;11.810;2022-07-24T04:36:41;9.38;;;8.48;;
13034;SDS011;6584;48.022;11.810;2022-07-24T04:39:07;9.23;;;8.43;;
13034;SDS011;6584;48.022;11.810;2022-07-24T04:41:32;9.30;;;8.50;;
13034;SDS011;6584;48.022;11.810;2022-07-24T04:43:58;9.63;;;8.70;;
13034;SDS011;6584;48.022;11.810;2022-07-24T04:46:23;9.57;;;8.60;;
13034;SDS011;6584;48.022;11.810;2022-07-24T04:48:49;9.60;;;8.40;;
13034;SDS011;6584;48.022;11.810;2022-07-24T04:51:15;10.35;;;8.63;;
13034;SDS011;6584;48.022;11.810;2022-07-24T04:53:40;9.85;;;8.63;;
13034;SDS011;6584;48.022;11.810;2022-07-24T04:56:06;10.43;;;8.68;;
13034;SDS011;6584;48.022;11.810;2022-07-24T04:58:31;10.65;;;8.70;;
13034;SDS011;6584;48.022;11.810;2022-07-24T05:00:57;9.25;;;8.40;;
13034;SDS011;6584;48.022;11.810;2022-07-24T05:03:23;9.77;;;8.65;;
13034;SDS011;6584;48.022;11.810;2022-07-24T05:05:48;9.50;;;8.70;;
13034;SDS011;6584;48.022;11.810;2022-07-24T05:08:14;9.38;;;8.18;;
13034;SDS011;6584;48.022;11.810;2022-07-24T05:10:40;9.25;;;8.40;;
13034;SDS011;6584;48.022;11.810;2022-07-24T05:13:05;8.52;;;7.80;;
13034;SDS011;6584;48.022;11.810;2022-07-24T05:15:31;9.05;;;8.23;;
13034;SDS011;6584;48.022;11.810;2022-07-24T05:17:56;8.70;;;8.00;;
13034;SDS011;6584;48.022;11.810;2022-07-24T05:20:22;8.95;;;8.15;;
13034;SDS011;6584;48.022;11.810;2022-07-24T05:22:47;8.80;;;8.07;;
13034;SDS011;6584;48.022;11.810;2022-07-24T05:25:13;9.07;;;8.38;;
13034;SDS011;6584;48.022;11.810;2022-07-24T05:27:39;8.55;;;7.90;;
13034;SDS011;6584;48.022;11.810;2022-07-24T05:30:04;8.50;;;7.68;;
13034;SDS011;6584;48.022;11.810;2022-07-24T05:32:31;9.05;;;8.18;;
13034;SDS011;6584;48.022;11.810;2022-07-24T05:34:56;9.30;;;8.50;;
13034;SDS011;6584;48.022;11.810;2022-07-24T05:37:22;8.95;;;8.25;;
13034;SDS011;6584;48.022;11.810;2022-07-24T05:39:47;8.68;;;7.97;;
13034;SDS011;6584;48.022;11.810;2022-07-24T05:42:13;9.18;;;8.32;;
13034;SDS011;6584;48.022;11.810;2022-07-24T05:44:38;9.25;;;8.55;;
13034;SDS011;6584;48.022;11.810;2022-07-24T05:47:04;9.23;;;8.52;;
13034;SDS011;6584;48.022;11.810;2022-07-24T05:49:30;9.23;;;8.48;;
13034;SDS011;6584;48.022;11.810;2022-07-24T05:51:56;9.57;;;8.85;;
13034;SDS011;6584;48.022;11.810;2022-07-24T05:54:22;9.68;;;8.50;;
13034;SDS011;6584;48.022;11.810;2022-07-24T05:56:47;8.82;;;8.02;;
13034;SDS011;6584;48.022;11.810;2022-07-24T05:59:13;8.63;;;7.93;;
13034;SDS011;6584;48.022;11.810;2022-07-24T06:01:39;9.52;;;8.63;;
13034;SDS011;6584;48.022;11.810;2022-07-24T06:04:05;9.32;;;8.60;;
13034;SDS011;6584;48.022;11.810;2022-07-24T06:06:31;9.80;;;9.00;;
13034;SDS011;6584;48.022;11.810;2022-07-24T06:08:56;10.35;;;9.45;;
13034;SDS011;6584;48.022;11.810;2022-07-24T06:11:22;10.00;;;9.10;;
13034;SDS011;6584;48.022;11.810;2022-07-24T06:13:48;10.05;;;9.18;;
13034;SDS011;6584;48.022;11.810;2022-07-24T06:16:14;9.98;;;9.00;;
13034;SDS011;6584;48.022;11.810;2022-07-24T06:18:39;9.82;;;8.95;;
13034;SDS011;6584;48.022;11.810;2022-07-24T06:21:05;9.60;;;8.70;;
13034;SDS011;6584;48.022;11.810;2022-07-24T06:23:31;10.02;;;9.15;;
13034;SDS011;6584;48.022;11.810;2022-07-24T06:25:57;10.80;;;9.80;;
13034;SDS011;6584;48.022;11.810;2022-07-24T06:28:23;9.35;;;8.07;;
13034;SDS011;6584;48.022;11.810;2022-07-24T06:30:49;9.90;;;9.00;;
13034;SDS011;6584;48.022;11.810;2022-07-24T06:33:14;10.18;;;9.38;;
13034;SDS011;6584;48.022;11.810;2022-07-24T06:35:40;10.00;;;9.10;;
13034;SDS011;6584;48.022;11.810;2022-07-24T06:38:05;9.68;;;8.88;;
13034;SDS011;6584;48.022;11.810;2022-07-24T06:40:31;9.60;;;8.80;;
13034;SDS011;6584;48.022;11.810;2022-07-24T06:42:58;10.52;;;9.45;;
13034;SDS011;6584;48.022;11.810;2022-07-24T06:45:23;10.98;;;10.07;;
13034;SDS011;6584;48.022;11.810;2022-07-24T06:47:49;9.77;;;8.80;;
13034;SDS011;6584;48.022;11.810;2022-07-24T06:50:15;10.30;;;9.30;;
13034;SDS011;6584;48.022;11.810;2022-07-24T06:52:41;10.68;;;9.68;;
13034;SDS011;6584;48.022;11.810;2022-07-24T06:55:07;10.18;;;9.27;;
13034;SDS011;6584;48.022;11.810;2022-07-24T06:57:33;9.85;;;9.05;;
13034;SDS011;6584;48.022;11.810;2022-07-24T06:59:59;10.95;;;10.05;;
13034;SDS011;6584;48.022;11.810;2022-07-24T07:02:25;11.57;;;10.35;;
13034;SDS011;6584;48.022;11.810;2022-07-24T07:04:50;10.40;;;9.40;;
13034;SDS011;6584;48.022;11.810;2022-07-24T07:07:16;10.30;;;9.50;;
13034;SDS011;6584;48.022;11.810;2022-07-24T07:09:42;9.82;;;8.82;;
13034;SDS011;6584;48.022;11.810;2022-07-24T07:12:08;11.00;;;10.00;;
13034;SDS011;6584;48.022;11.810;2022-07-24T07:14:34;9.88;;;8.98;;
13034;SDS011;6584;48.022;11.810;2022-07-24T07:17:00;10.32;;;9.48;;
13034;SDS011;6584;48.022;11.810;2022-07-24T07:19:26;10.93;;;10.02;;
13034;SDS011;6584;48.022;11.810;2022-07-24T07:21:51;9.60;;;8.80;;
13034;SDS011;6584;48.022;11.810;2022-07-24T07:24:17;9.13;;;8.43;;
13034;SDS011;6584;48.022;11.810;2022-07-24T07:26:42;9.77;;;8.98;;
13034;SDS011;6584;48.022;11.810;2022-07-24T07:29:08;10.15;;;9.40;;
13034;SDS011;6584;48.022;11.810;2022-07-24T07:31:34;10.15;;;9.25;;
13034;SDS011;6584;48.022;11.810;2022-07-24T07:33:59;10.15;;;9.25;;
13034;SDS011;6584;48.022;11.810;2022-07-24T07:36:25;9.82;;;8.68;;
13034;SDS011;6584;48.022;11.810;2022-07-24T07:38:51;9.75;;;8.93;;
13034;SDS011;6584;48.022;11.810;2022-07-24T07:41:17;10.48;;;9.57;;
13034;SDS011;6584;48.022;11.810;2022-07-24T07:43:44;10.15;;;9.25;;
13034;SDS011;6584;48.022;11.810;2022-07-24T07:46:12;9.30;;;8.50;;
13034;SDS011;6584;48.022;11.810;2022-07-24T07:48:38;9.60;;;8.73;;
13034;SDS011;6584;48.022;11.810;2022-07-24T07:51:03;10.00;;;9.23;;
13034;SDS011;6584;48.022;11.810;2022-07-24T07:53:29;9.20;;;8.50;;
13034;SDS011;6584;48.022;11.810;2022-07-24T07:55:55;9.40;;;8.50;;
13034;SDS011;6584;48.022;11.810;2022-07-24T07:58:21;8.88;;;8.07;;
13034;SDS011;6584;48.022;11.810;2022-07-24T08:00:47;8.65;;;7.95;;
13034;SDS011;6584;48.022;11.810;2022-07-24T08:03:13;8.68;;;7.97;;
13034;SDS011;6584;48.022;11.810;2022-07-24T08:05:39;8.98;;;8.07;;
13034;SDS011;6584;48.022;11.810;2022-07-24T08:08:05;9.43;;;8.63;;
13034;SDS011;6584;48.022;11.810;2022-07-24T08:10:30;9.55;;;8.63;;
13034;SDS011;6584;48.022;11.810;2022-07-24T08:12:56;8.68;;;7.88;;
13034;SDS011;6584;48.022;11.810;2022-07-24T08:15:21;9.70;;;8.82;;
13034;SDS011;6584;48.022;11.810;2022-07-24T08:17:51;9.15;;;8.25;;
13034;SDS011;6584;48.022;11.810;2022-07-24T08:20:17;9.13;;;8.13;;
13034;SDS011;6584;48.022;11.810;2022-07-24T08:22:44;9.32;;;8.48;;
13034;SDS011;6584;48.022;11.810;2022-07-24T08:25:10;8.77;;;7.95;;
13034;SDS011;6584;48.022;11.810;2022-07-24T08:27:36;9.90;;;8.55;;
13034;SDS011;6584;48.022;11.810;2022-07-24T08:30:03;9.50;;;8.63;;
13034;SDS011;6584;48.022;11.810;2022-07-24T08:32:32;9.60;;;8.70;;
13034;SDS011;6584;48.022;11.810;2022-07-24T08:34:59;9.07;;;8.18;;
13034;SDS011;6584;48.022;11.810;2022-07-24T08:37:24;8.50;;;7.65;;
13034;SDS011;6584;48.022;11.810;2022-07-24T08:39:50;8.88;;;8.05;;
13034;SDS011;6584;48.022;11.810;2022-07-24T08:42:16;9.30;;;8.50;;
13034;SDS011;6584;48.022;11.810;2022-07-24T08:44:41;8.90;;;8.10;;
13034;SDS011;6584;48.022;11.810;2022-07-24T08:47:07;8.55;;;7.88;;
13034;SDS011;6584;48.022;11.810;2022-07-24T08:49:34;8.57;;;7.85;;
13034;SDS011;6584;48.022;11.810;2022-07-24T08:52:03;9.55;;;8.02;;
13034;SDS011;6584;48.022;11.810;2022-07-24T08:54:33;8.82;;;7.93;;
13034;SDS011;6584;48.022;11.810;2022-07-24T08:56:59;8.43;;;7.72;;
13034;SDS011;6584;48.022;11.810;2022-07-24T08:59:25;9.32;;;8.32;;
13034;SDS011;6584;48.022;11.810;2022-07-24T09:01:50;8.80;;;7.90;;
13034;SDS011;6584;48.022;11.810;2022-07-24T09:07:09;8.75;;;7.90;;
13034;SDS011;6584;48.022;11.810;2022-07-24T09:09:39;8.63;;;7.93;;
13034;SDS011;6584;48.022;11.810;2022-07-24T09:12:10;9.68;;;8.77;;
13034;SDS011;6584;48.022;11.810;2022-07-24T09:14:41;8.90;;;8.10;;
13034;SDS011;6584;48.022;11.810;2022-07-24T09:17:12;8.65;;;7.95;;
13034;SDS011;6584;48.022;11.810;2022-07-24T09:19:50;9.32;;;8.35;;
13034;SDS011;6584;48.022;11.810;2022-07-24T09:27:30;8.73;;;7.93;;
13034;SDS011;6584;48.022;11.810;2022-07-24T09:29:57;8.90;;;8.00;;
13034;SDS011;6584;48.022;11.810;2022-07-24T09:32:22;8.23;;;7.55;;
13034;SDS011;6584;48.022;11.810;2022-07-24T09:34:50;8.65;;;7.82;;
13034;SDS011;6584;48.022;11.810;2022-07-24T09:37:17;8.55;;;7.82;;
13034;SDS011;6584;48.022;11.810;2022-07-24T09:39:43;10.10;;;8.43;;
13034;SDS011;6584;48.022;11.810;2022-07-24T09:42:09;7.97;;;7.28;;
13034;SDS011;6584;48.022;11.810;2022-07-24T09:44:35;9.05;;;8.25;;
13034;SDS011;6584;48.022;11.810;2022-07-24T09:47:08;8.98;;;8.18;;
13034;SDS011;6584;48.022;11.810;2022-07-24T09:49:35;9.65;;;8.63;;
13034;SDS011;6584;48.022;11.810;2022-07-24T09:54:31;9.73;;;8.93;;
13034;SDS011;6584;48.022;11.810;2022-07-24T10:02:15;10.70;;;7.97;;
13034;SDS011;6584;48.022;11.810;2022-07-24T10:04:42;9.18;;;8.38;;
13034;SDS011;6584;48.022;11.810;2022-07-24T10:07:09;9.45;;;8.57;;
13034;SDS011;6584;48.022;11.810;2022-07-24T10:09:36;8.95;;;8.15;;
13034;SDS011;6584;48.022;11.810;2022-07-24T10:12:07;9.70;;;8.88;;
13034;SDS011;6584;48.022;11.810;2022-07-24T10:14:38;8.35;;;7.57;;
13034;SDS011;6584;48.022;11.810;2022-07-24T10:17:05;9.57;;;8.27;;
13034;SDS011;6584;48.022;11.810;2022-07-24T10:19:39;8.35;;;7.65;;
13034;SDS011;6584;48.022;11.810;2022-07-24T10:22:16;10.48;;;8.52;;
13034;SDS011;6584;48.022;11.810;2022-07-24T10:24:52;8.25;;;7.55;;
13034;SDS011;6584;48.022;11.810;2022-07-24T10:27:30;9.50;;;8.70;;
13034;SDS011;6584;48.022;11.810;2022-07-24T10:30:02;8.30;;;7.60;;
13034;SDS011;6584;48.022;11.810;2022-07-24T10:32:33;8.73;;;7.93;;
13034;SDS011;6584;48.022;11.810;2022-07-24T10:37:55;8.82;;;8.02;;
13034;SDS011;6584;48.022;11.810;2022-07-24T10:40:54;9.10;;;8.40;;
13034;SDS011;6584;48.022;11.810;2022-07-24T10:43:26;8.43;;;7.68;;
13034;SDS011;6584;48.022;11.810;2022-07-24T10:53:45;11.45;;;8.18;;
13034;SDS011;6584;48.022;11.810;2022-07-24T10:59:15;8.90;;;8.07;;
13034;SDS011;6584;48.022;11.810;2022-07-24T11:02:25;8.15;;;7.35;;
13034;SDS011;6584;48.022;11.810;2022-07-24T11:10:46;9.88;;;7.65;;
13034;SDS011;6584;48.022;11.810;2022-07-24T11:18:38;8.95;;;8.07;;
13034;SDS011;6584;48.022;11.810;2022-07-24T11:21:06;8.57;;;7.93;;
13034;SDS011;6584;48.022;11.810;2022-07-24T11:23:32;11.68;;;7.53;;
13034;SDS011;6584;48.022;11.810;2022-07-24T11:26:35;8.95;;;8.15;;
13034;SDS011;6584;48.022;11.810;2022-07-24T11:29:13;8.40;;;7.72;;
13034;SDS011;6584;48.022;11.810;2022-07-24T11:31:43;8.85;;;8.05;;
13034;SDS011;6584;48.022;11.810;2022-07-24T11:34:10;8.77;;;7.97;;
13034;SDS011;6584;48.022;11.810;2022-07-24T11:36:38;9.32;;;8.40;;
13034;SDS011;6584;48.022;11.810;2022-07-24T11:39:07;9.20;;;8.40;;
13034;SDS011;6584;48.022;11.810;2022-07-24T11:41:45;8.70;;;7.95;;
13034;SDS011;6584;48.022;11.810;2022-07-24T11:47:14;9.20;;;8.10;;
13034;SDS011;6584;48.022;11.810;2022-07-24T11:49:51;9.10;;;8.35;;
13034;SDS011;6584;48.022;11.810;2022-07-24T11:52:19;8.82;;;7.97;;
13034;SDS011;6584;48.022;11.810;2022-07-24T11:54:51;8.55;;;7.82;;
13034;SDS011;6584;48.022;11.810;2022-07-24T11:57:20;8.32;;;7.63;;
13034;SDS011;6584;48.022;11.810;2022-07-24T11:59:51;10.27;;;7.35;;
13034;SDS011;6584;48.022;11.810;2022-07-24T12:02:18;9.25;;;8.45;;
13034;SDS011;6584;48.022;11.810;2022-07-24T12:04:45;9.60;;;7.85;;
13034;SDS011;6584;48.022;11.810;2022-07-24T12:07:14;8.07;;;7.40;;
13034;SDS011;6584;48.022;11.810;2022-07-24T12:09:49;8.75;;;7.93;;
13034;SDS011;6584;48.022;11.810;2022-07-24T12:12:20;8.35;;;7.65;;
13034;SDS011;6584;48.022;11.810;2022-07-24T12:14:51;8.70;;;7.88;;
13034;SDS011;6584;48.022;11.810;2022-07-24T12:17:18;8.60;;;7.80;;
13034;SDS011;6584;48.022;11.810;2022-07-24T12:19:50;8.00;;;7.30;;
13034;SDS011;6584;48.022;11.810;2022-07-24T12:22:18;8.75;;;7.43;;
13034;SDS011;6584;48.022;11.810;2022-07-24T12:24:44;9.52;;;7.78;;
13034;SDS011;6584;48.022;11.810;2022-07-24T12:27:10;8.80;;;7.90;;
13034;SDS011;6584;48.022;11.810;2022-07-24T12:29:40;8.70;;;7.90;;
13034;SDS011;6584;48.022;11.810;2022-07-24T12:34:46;8.50;;;7.75;;
13034;SDS011;6584;48.022;11.810;2022-07-24T12:37:16;7.95;;;7.25;;
13034;SDS011;6584;48.022;11.810;2022-07-24T12:39:46;8.45;;;7.68;;
13034;SDS011;6584;48.022;11.810;2022-07-24T12:42:12;7.97;;;7.38;;
13034;SDS011;6584;48.022;11.810;2022-07-24T12:44:41;8.70;;;7.90;;
13034;SDS011;6584;48.022;11.810;2022-07-24T12:47:09;9.95;;;8.15;;
13034;SDS011;6584;48.022;11.810;2022-07-24T12:49:41;8.77;;;8.07;;
13034;SDS011;6584;48.022;11.810;2022-07-24T12:52:18;8.43;;;7.72;;
13034;SDS011;6584;48.022;11.810;2022-07-24T12:54:47;7.90;;;7.30;;
13034;SDS011;6584;48.022;11.810;2022-07-24T12:57:13;8.73;;;7.82;;
13034;SDS011;6584;48.022;11.810;2022-07-24T12:59:39;7.95;;;7.35;;
13034;SDS011;6584;48.022;11.810;2022-07-24T13:02:11;8.35;;;7.63;;
13034;SDS011;6584;48.022;11.810;2022-07-24T13:04:45;8.25;;;7.55;;
13034;SDS011;6584;48.022;11.810;2022-07-24T13:07:15;8.45;;;7.70;;
13034;SDS011;6584;48.022;11.810;2022-07-24T13:09:43;9.10;;;7.82;;
13034;SDS011;6584;48.022;11.810;2022-07-24T13:12:09;8.43;;;7.65;;
13034;SDS011;6584;48.022;11.810;2022-07-24T13:14:36;8.23;;;7.50;;
13034;SDS011;6584;48.022;11.810;2022-07-24T13:17:04;8.55;;;7.40;;
13034;SDS011;6584;48.022;11.810;2022-07-24T13:19:34;8.25;;;7.55;;
13034;SDS011;6584;48.022;11.810;2022-07-24T13:22:00;8.68;;;7.88;;
13034;SDS011;6584;48.022;11.810;2022-07-24T13:24:25;7.93;;;7.10;;
13034;SDS011;6584;48.022;11.810;2022-07-24T13:26:51;8.43;;;7.35;;
13034;SDS011;6584;48.022;11.810;2022-07-24T13:29:17;8.20;;;7.50;;
13034;SDS011;6584;48.022;11.810;2022-07-24T13:31:42;8.80;;;8.00;;
13034;SDS011;6584;48.022;11.810;2022-07-24T13:34:09;8.40;;;7.70;;
13034;SDS011;6584;48.022;11.810;2022-07-24T13:36:35;8.45;;;7.65;;
13034;SDS011;6584;48.022;11.810;2022-07-24T13:39:03;7.85;;;7.15;;
13034;SDS011;6584;48.022;11.810;2022-07-24T13:41:32;9.77;;;8.02;;
13034;SDS011;6584;48.022;11.810;2022-07-24T13:43:58;7.85;;;7.18;;
13034;SDS011;6584;48.022;11.810;2022-07-24T13:46:24;8.35;;;7.53;;
13034;SDS011;6584;48.022;11.810;2022-07-24T13:48:50;8.55;;;7.82;;
13034;SDS011;6584;48.022;11.810;2022-07-24T13:51:16;8.27;;;7.60;;
13034;SDS011;6584;48.022;11.810;2022-07-24T13:53:43;8.20;;;7.40;;
13034;SDS011;6584;48.022;11.810;2022-07-24T13:56:09;8.07;;;7.47;;
13034;SDS011;6584;48.022;11.810;2022-07-24T13:58:37;8.25;;;7.55;;
13034;SDS011;6584;48.022;11.810;2022-07-24T14:01:03;8.27;;;7.45;;
13034;SDS011;6584;48.022;11.810;2022-07-24T14:03:29;8.00;;;7.28;;
13034;SDS011;6584;48.022;11.810;2022-07-24T14:05:55;7.93;;;7.32;;
13034;SDS011;6584;48.022;11.810;2022-07-24T14:08:21;8.15;;;7.32;;
13034;SDS011;6584;48.022;11.810;2022-07-24T14:10:47;8.60;;;7.80;;
13034;SDS011;6584;48.022;11.810;2022-07-24T14:13:12;8.93;;;7.28;;
13034;SDS011;6584;48.022;11.810;2022-07-24T14:15:38;8.50;;;7.72;;
13034;SDS011;6584;48.022;11.810;2022-07-24T14:18:04;8.20;;;7.40;;
13034;SDS011;6584;48.022;11.810;2022-07-24T14:20:29;8.18;;;7.47;;
13034;SDS011;6584;48.022;11.810;2022-07-24T14:22:55;8.20;;;7.40;;
13034;SDS011;6584;48.022;11.810;2022-07-24T14:25:20;8.18;;;7.47;;
13034;SDS011;6584;48.022;11.810;2022-07-24T14:27:46;8.27;;;7.43;;
13034;SDS011;6584;48.022;11.810;2022-07-24T14:30:11;7.55;;;6.88;;
13034;SDS011;6584;48.022;11.810;2022-07-24T14:32:38;8.15;;;7.45;;
13034;SDS011;6584;48.022;11.810;2022-07-24T14:35:03;8.35;;;7.60;;
13034;SDS011;6584;48.022;11.810;2022-07-24T14:37:32;8.35;;;7.57;;
13034;SDS011;6584;48.022;11.810;2022-07-24T14:39:59;7.30;;;6.80;;
13034;SDS011;6584;48.022;11.810;2022-07-24T14:42:24;8.20;;;7.60;;
13034;SDS011;6584;48.022;11.810;2022-07-24T14:44:50;8.35;;;7.53;;
13034;SDS011;6584;48.022;11.810;2022-07-24T14:47:16;8.18;;;7.40;;
13034;SDS011;6584;48.022;11.810;2022-07-24T14:49:41;8.82;;;7.90;;
13034;SDS011;6584;48.022;11.810;2022-07-24T14:52:07;8.00;;;7.40;;
13034;SDS011;6584;48.022;11.810;2022-07-24T14:54:32;7.85;;;7.13;;
13034;SDS011;6584;48.022;11.810;2022-07-24T14:56:58;7.90;;;7.30;;
13034;SDS011;6584;48.022;11.810;2022-07-24T14:59:25;8.77;;;7.15;;
13034;SDS011;6584;48.022;11.810;2022-07-24T15:01:51;7.80;;;7.10;;
13034;SDS011;6584;48.022;11.810;2022-07-24T15:04:17;8.23;;;7.53;;
13034;SDS011;6584;48.022;11.810;2022-07-24T15:06:43;8.93;;;6.95;;
13034;SDS011;6584;48.022;11.810;2022-07-24T15:09:08;7.97;;;7.25;;
13034;SDS011;6584;48.022;11.810;2022-07-24T15:11:34;8.15;;;7.32;;
13034;SDS011;6584;48.022;11.810;2022-07-24T15:13:59;7.55;;;6.85;;
13034;SDS011;6584;48.022;11.810;2022-07-24T15:16:25;8.35;;;7.65;;
13034;SDS011;6584;48.022;11.810;2022-07-24T15:18:50;8.20;;;7.50;;
13034;SDS011;6584;48.022;11.810;2022-07-24T15:21:16;8.43;;;7.70;;
13034;SDS011;6584;48.022;11.810;2022-07-24T15:23:41;9.95;;;7.60;;
13034;SDS011;6584;48.022;11.810;2022-07-24T15:26:07;9.90;;;8.07;;
13034;SDS011;6584;48.022;11.810;2022-07-24T15:28:33;8.13;;;7.43;;
13034;SDS011;6584;48.022;11.810;2022-07-24T15:30:58;7.45;;;6.85;;